NOAA Weather Radio

Lightning Safety

Turn Around Don't Drown
Storm Ready
SkyWarn
WACO REGIONAL AIRPORT, TX, United States (KACT) 31-36N 97-13W 151M
Oct 31, 2014 - 02:51 PM EDT / 2014.10.31 1851 UTC
Wind: from the N (350 degrees) at 12 MPH (10 KT) gusting to 20 MPH (17 KT):0
Visibility: 10 mile(s):0
Sky conditions: clear
Temperature: 70.0 F (21.1 C)
Dew Point: 41.0 F (5.0 C)
Relative Humidity: 34%
Pressure (altimeter): 30.29 in. Hg (1025 hPa)
ob: KACT 311851Z 35010G17KT 10SM CLR 21/05 A3029 RMK AO2 SLP253 T02110050
cycle: 19